Terminal Aerodrome Forecast
Issued by NWS

Home | Current Version | Previous Version | Text Only | Print | Product List | Glossary On
Versions: 1 2 3 4 5 6 7 8 9 10 11 12 13 14 15 16 17 18
850
FTUS41 KBGM 060923 AAA
TAFELM
TAF AMD
KELM 060923Z 0609/0706 00000KT P6SM SKC
     FM061400 VRB03KT P6SM BKN080
     FM061900 14007KT P6SM OVC150
     FM062100 15007KT P6SM -RASN OVC070
     FM062300 14005KT 5SM -RASN OVC022
     FM070000 14004KT 3SM -RASN OVC012=

USA.gov is the U.S. government's official web portal to all federal, state and local government web resources and services.